sensor_id;sensor_type;location;lat;lon;timestamp;P1;durP1;ratioP1;P2;durP2;ratioP2
34497;SDS011;20744;50.938;7.286;2023-07-29T00:00:19;6.18;;;1.98;;
34497;SDS011;20744;50.938;7.286;2023-07-29T00:02:46;4.32;;;1.90;;
34497;SDS011;20744;50.938;7.286;2023-07-29T00:05:13;3.83;;;2.10;;
34497;SDS011;20744;50.938;7.286;2023-07-29T00:07:42;5.10;;;1.90;;
34497;SDS011;20744;50.938;7.286;2023-07-29T00:10:10;4.70;;;2.00;;
34497;SDS011;20744;50.938;7.286;2023-07-29T00:12:37;7.55;;;2.35;;
34497;SDS011;20744;50.938;7.286;2023-07-29T00:15:05;6.05;;;2.13;;
34497;SDS011;20744;50.938;7.286;2023-07-29T00:17:32;6.60;;;2.30;;
34497;SDS011;20744;50.938;7.286;2023-07-29T00:20:00;5.65;;;1.90;;
34497;SDS011;20744;50.938;7.286;2023-07-29T00:22:27;4.03;;;1.88;;
34497;SDS011;20744;50.938;7.286;2023-07-29T00:24:56;5.40;;;2.20;;
34497;SDS011;20744;50.938;7.286;2023-07-29T00:27:24;4.25;;;2.28;;
34497;SDS011;20744;50.938;7.286;2023-07-29T00:29:51;2.88;;;2.30;;
34497;SDS011;20744;50.938;7.286;2023-07-29T00:32:19;5.43;;;2.42;;
34497;SDS011;20744;50.938;7.286;2023-07-29T00:34:46;10.10;;;3.00;;
34497;SDS011;20744;50.938;7.286;2023-07-29T00:37:13;5.47;;;2.78;;
34497;SDS011;20744;50.938;7.286;2023-07-29T00:39:41;4.65;;;2.13;;
34497;SDS011;20744;50.938;7.286;2023-07-29T00:42:09;4.70;;;2.38;;
34497;SDS011;20744;50.938;7.286;2023-07-29T00:44:37;5.68;;;2.40;;
34497;SDS011;20744;50.938;7.286;2023-07-29T00:47:04;3.83;;;2.13;;
34497;SDS011;20744;50.938;7.286;2023-07-29T00:49:32;8.20;;;2.60;;
34497;SDS011;20744;50.938;7.286;2023-07-29T00:52:00;3.63;;;2.13;;
34497;SDS011;20744;50.938;7.286;2023-07-29T00:54:27;3.40;;;2.28;;
34497;SDS011;20744;50.938;7.286;2023-07-29T00:56:54;6.80;;;2.22;;
34497;SDS011;20744;50.938;7.286;2023-07-29T00:59:23;9.65;;;2.50;;
34497;SDS011;20744;50.938;7.286;2023-07-29T01:01:53;5.03;;;3.08;;
34497;SDS011;20744;50.938;7.286;2023-07-29T01:04:20;6.60;;;2.65;;
34497;SDS011;20744;50.938;7.286;2023-07-29T01:06:49;4.45;;;2.28;;
34497;SDS011;20744;50.938;7.286;2023-07-29T01:09:20;3.85;;;2.05;;
34497;SDS011;20744;50.938;7.286;2023-07-29T01:11:51;4.05;;;2.47;;
34497;SDS011;20744;50.938;7.286;2023-07-29T01:14:21;5.50;;;2.08;;
34497;SDS011;20744;50.938;7.286;2023-07-29T01:16:55;6.78;;;2.78;;
34497;SDS011;20744;50.938;7.286;2023-07-29T01:19:29;4.25;;;2.22;;
34497;SDS011;20744;50.938;7.286;2023-07-29T01:22:00;7.88;;;2.55;;
34497;SDS011;20744;50.938;7.286;2023-07-29T01:24:29;9.32;;;2.47;;
34497;SDS011;20744;50.938;7.286;2023-07-29T01:26:56;7.03;;;2.30;;
34497;SDS011;20744;50.938;7.286;2023-07-29T01:29:23;3.95;;;2.80;;
34497;SDS011;20744;50.938;7.286;2023-07-29T01:31:51;4.18;;;2.30;;
34497;SDS011;20744;50.938;7.286;2023-07-29T01:34:22;9.48;;;2.67;;
34497;SDS011;20744;50.938;7.286;2023-07-29T01:36:51;2.35;;;2.15;;
34497;SDS011;20744;50.938;7.286;2023-07-29T01:39:19;4.10;;;2.10;;
34497;SDS011;20744;50.938;7.286;2023-07-29T01:41:49;3.30;;;2.40;;
34497;SDS011;20744;50.938;7.286;2023-07-29T01:44:17;2.60;;;2.10;;
34497;SDS011;20744;50.938;7.286;2023-07-29T01:46:45;6.60;;;2.42;;
34497;SDS011;20744;50.938;7.286;2023-07-29T01:49:12;10.00;;;2.35;;
34497;SDS011;20744;50.938;7.286;2023-07-29T01:51:39;7.50;;;2.40;;
34497;SDS011;20744;50.938;7.286;2023-07-29T01:54:07;5.05;;;2.38;;
34497;SDS011;20744;50.938;7.286;2023-07-29T01:56:34;3.17;;;2.30;;
34497;SDS011;20744;50.938;7.286;2023-07-29T01:59:03;4.38;;;2.42;;
34497;SDS011;20744;50.938;7.286;2023-07-29T02:01:31;4.00;;;2.58;;
34497;SDS011;20744;50.938;7.286;2023-07-29T02:03:58;10.57;;;2.95;;
34497;SDS011;20744;50.938;7.286;2023-07-29T02:06:26;6.88;;;2.30;;
34497;SDS011;20744;50.938;7.286;2023-07-29T02:08:53;5.75;;;2.33;;
34497;SDS011;20744;50.938;7.286;2023-07-29T02:11:20;3.30;;;2.58;;
34497;SDS011;20744;50.938;7.286;2023-07-29T02:13:52;7.95;;;2.60;;
34497;SDS011;20744;50.938;7.286;2023-07-29T02:16:21;5.90;;;2.63;;
34497;SDS011;20744;50.938;7.286;2023-07-29T02:18:49;9.60;;;2.58;;
34497;SDS011;20744;50.938;7.286;2023-07-29T02:21:16;4.82;;;2.38;;
34497;SDS011;20744;50.938;7.286;2023-07-29T02:23:43;6.43;;;2.50;;
34497;SDS011;20744;50.938;7.286;2023-07-29T02:26:11;5.85;;;2.40;;
34497;SDS011;20744;50.938;7.286;2023-07-29T02:28:38;6.15;;;2.50;;
34497;SDS011;20744;50.938;7.286;2023-07-29T02:31:09;5.40;;;2.40;;
34497;SDS011;20744;50.938;7.286;2023-07-29T02:33:38;47.40;;;4.80;;
34497;SDS011;20744;50.938;7.286;2023-07-29T02:36:05;12.85;;;3.17;;
34497;SDS011;20744;50.938;7.286;2023-07-29T02:38:32;4.72;;;2.92;;
34497;SDS011;20744;50.938;7.286;2023-07-29T02:41:00;6.25;;;3.63;;
34497;SDS011;20744;50.938;7.286;2023-07-29T02:43:27;8.90;;;3.22;;
34497;SDS011;20744;50.938;7.286;2023-07-29T02:45:54;14.57;;;3.15;;
34497;SDS011;20744;50.938;7.286;2023-07-29T02:48:22;8.88;;;3.00;;
34497;SDS011;20744;50.938;7.286;2023-07-29T02:50:50;7.22;;;3.00;;
34497;SDS011;20744;50.938;7.286;2023-07-29T02:53:17;8.75;;;2.65;;
34497;SDS011;20744;50.938;7.286;2023-07-29T02:55:45;3.92;;;2.85;;
34497;SDS011;20744;50.938;7.286;2023-07-29T02:58:12;8.18;;;3.08;;
34497;SDS011;20744;50.938;7.286;2023-07-29T03:00:39;4.95;;;2.78;;
34497;SDS011;20744;50.938;7.286;2023-07-29T03:03:08;11.90;;;3.28;;
34497;SDS011;20744;50.938;7.286;2023-07-29T03:05:36;4.22;;;2.60;;
34497;SDS011;20744;50.938;7.286;2023-07-29T03:08:05;5.28;;;2.60;;
34497;SDS011;20744;50.938;7.286;2023-07-29T03:10:34;4.07;;;2.65;;
34497;SDS011;20744;50.938;7.286;2023-07-29T03:13:02;3.72;;;2.78;;
34497;SDS011;20744;50.938;7.286;2023-07-29T03:15:29;4.13;;;2.13;;
34497;SDS011;20744;50.938;7.286;2023-07-29T03:17:59;4.32;;;2.10;;
34497;SDS011;20744;50.938;7.286;2023-07-29T03:20:26;2.97;;;2.05;;
34497;SDS011;20744;50.938;7.286;2023-07-29T03:22:53;8.10;;;2.30;;
34497;SDS011;20744;50.938;7.286;2023-07-29T03:25:22;3.83;;;1.90;;
34497;SDS011;20744;50.938;7.286;2023-07-29T03:27:49;6.80;;;2.63;;
34497;SDS011;20744;50.938;7.286;2023-07-29T03:30:18;3.65;;;1.80;;
34497;SDS011;20744;50.938;7.286;2023-07-29T03:32:46;6.35;;;1.90;;
34497;SDS011;20744;50.938;7.286;2023-07-29T03:35:13;4.18;;;1.75;;
34497;SDS011;20744;50.938;7.286;2023-07-29T03:37:40;4.88;;;1.98;;
34497;SDS011;20744;50.938;7.286;2023-07-29T03:40:08;12.73;;;2.67;;
34497;SDS011;20744;50.938;7.286;2023-07-29T03:42:37;6.40;;;2.70;;
34497;SDS011;20744;50.938;7.286;2023-07-29T03:45:05;8.57;;;2.20;;
34497;SDS011;20744;50.938;7.286;2023-07-29T03:47:33;4.68;;;2.40;;
34497;SDS011;20744;50.938;7.286;2023-07-29T03:50:00;4.60;;;2.25;;
34497;SDS011;20744;50.938;7.286;2023-07-29T03:52:27;7.18;;;2.10;;
34497;SDS011;20744;50.938;7.286;2023-07-29T03:54:55;5.05;;;2.05;;
34497;SDS011;20744;50.938;7.286;2023-07-29T03:57:22;2.30;;;2.10;;
34497;SDS011;20744;50.938;7.286;2023-07-29T03:59:50;5.47;;;2.80;;
34497;SDS011;20744;50.938;7.286;2023-07-29T04:02:18;78.85;;;4.95;;
34497;SDS011;20744;50.938;7.286;2023-07-29T04:04:45;8.48;;;2.60;;
34497;SDS011;20744;50.938;7.286;2023-07-29T04:07:13;7.95;;;2.97;;
34497;SDS011;20744;50.938;7.286;2023-07-29T04:09:40;7.10;;;3.80;;
34497;SDS011;20744;50.938;7.286;2023-07-29T04:12:08;6.35;;;4.07;;
34497;SDS011;20744;50.938;7.286;2023-07-29T04:14:36;9.43;;;4.60;;
34497;SDS011;20744;50.938;7.286;2023-07-29T04:17:05;5.82;;;4.28;;
34497;SDS011;20744;50.938;7.286;2023-07-29T04:19:32;8.50;;;4.05;;
34497;SDS011;20744;50.938;7.286;2023-07-29T04:21:59;9.00;;;4.72;;
34497;SDS011;20744;50.938;7.286;2023-07-29T04:24:27;8.25;;;4.30;;
34497;SDS011;20744;50.938;7.286;2023-07-29T04:26:54;8.27;;;4.45;;
34497;SDS011;20744;50.938;7.286;2023-07-29T04:29:21;9.57;;;4.30;;
34497;SDS011;20744;50.938;7.286;2023-07-29T04:31:49;7.97;;;4.07;;
34497;SDS011;20744;50.938;7.286;2023-07-29T04:34:18;7.80;;;4.30;;
34497;SDS011;20744;50.938;7.286;2023-07-29T04:36:45;6.72;;;4.10;;
34497;SDS011;20744;50.938;7.286;2023-07-29T04:39:12;7.18;;;4.00;;
34497;SDS011;20744;50.938;7.286;2023-07-29T04:41:40;10.05;;;4.25;;
34497;SDS011;20744;50.938;7.286;2023-07-29T04:44:07;60.10;;;5.40;;
34497;SDS011;20744;50.938;7.286;2023-07-29T04:46:35;8.75;;;3.95;;
34497;SDS011;20744;50.938;7.286;2023-07-29T04:49:02;6.82;;;3.90;;
34497;SDS011;20744;50.938;7.286;2023-07-29T04:51:31;9.82;;;3.70;;
34497;SDS011;20744;50.938;7.286;2023-07-29T04:53:58;5.13;;;3.30;;
34497;SDS011;20744;50.938;7.286;2023-07-29T04:56:25;7.55;;;3.53;;
34497;SDS011;20744;50.938;7.286;2023-07-29T04:58:53;8.90;;;3.72;;
34497;SDS011;20744;50.938;7.286;2023-07-29T05:01:20;7.15;;;3.42;;
34497;SDS011;20744;50.938;7.286;2023-07-29T05:03:47;7.82;;;3.38;;
34497;SDS011;20744;50.938;7.286;2023-07-29T05:06:15;10.52;;;3.10;;
34497;SDS011;20744;50.938;7.286;2023-07-29T05:08:43;3.83;;;2.40;;
34497;SDS011;20744;50.938;7.286;2023-07-29T05:11:11;8.35;;;2.72;;
34497;SDS011;20744;50.938;7.286;2023-07-29T05:13:39;6.15;;;2.78;;
34497;SDS011;20744;50.938;7.286;2023-07-29T05:16:07;6.40;;;3.03;;
34497;SDS011;20744;50.938;7.286;2023-07-29T05:18:35;6.20;;;3.22;;
34497;SDS011;20744;50.938;7.286;2023-07-29T05:21:02;4.30;;;3.05;;
34497;SDS011;20744;50.938;7.286;2023-07-29T05:23:30;4.32;;;2.95;;
34497;SDS011;20744;50.938;7.286;2023-07-29T05:25:58;5.65;;;2.70;;
34497;SDS011;20744;50.938;7.286;2023-07-29T05:28:25;4.57;;;2.97;;
34497;SDS011;20744;50.938;7.286;2023-07-29T05:30:53;17.98;;;3.65;;
34497;SDS011;20744;50.938;7.286;2023-07-29T05:33:20;6.50;;;3.17;;
34497;SDS011;20744;50.938;7.286;2023-07-29T05:35:47;4.65;;;3.50;;
34497;SDS011;20744;50.938;7.286;2023-07-29T05:38:15;7.13;;;3.50;;
34497;SDS011;20744;50.938;7.286;2023-07-29T05:40:42;5.95;;;3.25;;
34497;SDS011;20744;50.938;7.286;2023-07-29T05:43:10;9.20;;;3.25;;
34497;SDS011;20744;50.938;7.286;2023-07-29T05:45:39;4.72;;;3.78;;
34497;SDS011;20744;50.938;7.286;2023-07-29T05:48:06;9.63;;;3.88;;
34497;SDS011;20744;50.938;7.286;2023-07-29T05:50:34;5.45;;;3.72;;
34497;SDS011;20744;50.938;7.286;2023-07-29T05:53:01;4.85;;;3.83;;
34497;SDS011;20744;50.938;7.286;2023-07-29T05:55:28;5.20;;;3.45;;
34497;SDS011;20744;50.938;7.286;2023-07-29T05:57:55;6.57;;;3.90;;
34497;SDS011;20744;50.938;7.286;2023-07-29T06:00:24;4.82;;;3.70;;
34497;SDS011;20744;50.938;7.286;2023-07-29T06:02:51;7.35;;;4.30;;
34497;SDS011;20744;50.938;7.286;2023-07-29T06:05:19;11.07;;;4.35;;
34497;SDS011;20744;50.938;7.286;2023-07-29T06:07:46;6.63;;;4.13;;
34497;SDS011;20744;50.938;7.286;2023-07-29T06:10:14;8.25;;;4.20;;
34497;SDS011;20744;50.938;7.286;2023-07-29T06:12:43;6.70;;;3.90;;
34497;SDS011;20744;50.938;7.286;2023-07-29T06:15:10;7.90;;;4.68;;
34497;SDS011;20744;50.938;7.286;2023-07-29T06:17:40;7.80;;;3.80;;
34497;SDS011;20744;50.938;7.286;2023-07-29T06:20:07;12.00;;;4.72;;
34497;SDS011;20744;50.938;7.286;2023-07-29T06:22:35;6.45;;;4.47;;
34497;SDS011;20744;50.938;7.286;2023-07-29T06:25:03;6.38;;;4.10;;
34497;SDS011;20744;50.938;7.286;2023-07-29T06:27:30;11.20;;;4.68;;
34497;SDS011;20744;50.938;7.286;2023-07-29T06:29:57;11.10;;;4.75;;
34497;SDS011;20744;50.938;7.286;2023-07-29T06:32:25;6.38;;;5.20;;
34497;SDS011;20744;50.938;7.286;2023-07-29T06:34:53;7.47;;;5.90;;
34497;SDS011;20744;50.938;7.286;2023-07-29T06:37:21;8.85;;;6.00;;
34497;SDS011;20744;50.938;7.286;2023-07-29T06:39:48;12.00;;;6.57;;
34497;SDS011;20744;50.938;7.286;2023-07-29T06:42:16;10.88;;;6.60;;
34497;SDS011;20744;50.938;7.286;2023-07-29T06:44:43;9.40;;;6.15;;
34497;SDS011;20744;50.938;7.286;2023-07-29T06:47:11;8.98;;;6.40;;
34497;SDS011;20744;50.938;7.286;2023-07-29T06:49:38;9.13;;;5.40;;
34497;SDS011;20744;50.938;7.286;2023-07-29T06:52:07;14.70;;;6.63;;
34497;SDS011;20744;50.938;7.286;2023-07-29T06:54:35;16.00;;;6.32;;
34497;SDS011;20744;50.938;7.286;2023-07-29T06:57:02;8.50;;;5.25;;
34497;SDS011;20744;50.938;7.286;2023-07-29T06:59:31;5.53;;;4.53;;
34497;SDS011;20744;50.938;7.286;2023-07-29T07:01:59;6.15;;;4.50;;
34497;SDS011;20744;50.938;7.286;2023-07-29T07:04:27;4.97;;;3.30;;
34497;SDS011;20744;50.938;7.286;2023-07-29T07:06:54;6.55;;;3.65;;
34497;SDS011;20744;50.938;7.286;2023-07-29T07:09:23;7.57;;;4.25;;
34497;SDS011;20744;50.938;7.286;2023-07-29T07:11:50;5.97;;;3.60;;
34497;SDS011;20744;50.938;7.286;2023-07-29T07:14:19;5.43;;;3.35;;
34497;SDS011;20744;50.938;7.286;2023-07-29T07:16:47;7.00;;;3.60;;
34497;SDS011;20744;50.938;7.286;2023-07-29T07:19:14;7.82;;;4.40;;
34497;SDS011;20744;50.938;7.286;2023-07-29T07:21:42;4.90;;;3.65;;
34497;SDS011;20744;50.938;7.286;2023-07-29T07:24:09;6.43;;;3.65;;
34497;SDS011;20744;50.938;7.286;2023-07-29T07:26:38;6.07;;;2.90;;
34497;SDS011;20744;50.938;7.286;2023-07-29T07:29:05;3.83;;;2.30;;
34497;SDS011;20744;50.938;7.286;2023-07-29T07:31:33;6.15;;;2.70;;
34497;SDS011;20744;50.938;7.286;2023-07-29T07:34:00;9.73;;;2.20;;
34497;SDS011;20744;50.938;7.286;2023-07-29T07:36:28;6.95;;;2.42;;
34497;SDS011;20744;50.938;7.286;2023-07-29T07:38:56;4.18;;;2.30;;
34497;SDS011;20744;50.938;7.286;2023-07-29T07:41:24;3.38;;;2.00;;
34497;SDS011;20744;50.938;7.286;2023-07-29T07:43:52;3.15;;;1.90;;
34497;SDS011;20744;50.938;7.286;2023-07-29T07:46:20;6.75;;;1.60;;
34497;SDS011;20744;50.938;7.286;2023-07-29T07:48:47;2.50;;;1.77;;
34497;SDS011;20744;50.938;7.286;2023-07-29T07:51:15;5.78;;;2.15;;
34497;SDS011;20744;50.938;7.286;2023-07-29T07:53:42;8.95;;;2.45;;
34497;SDS011;20744;50.938;7.286;2023-07-29T07:56:09;4.72;;;2.33;;
34497;SDS011;20744;50.938;7.286;2023-07-29T07:58:37;2.85;;;1.80;;
34497;SDS011;20744;50.938;7.286;2023-07-29T08:01:07;4.65;;;2.15;;
34497;SDS011;20744;50.938;7.286;2023-07-29T08:03:34;2.33;;;1.80;;
34497;SDS011;20744;50.938;7.286;2023-07-29T08:06:02;5.53;;;2.00;;
34497;SDS011;20744;50.938;7.286;2023-07-29T08:08:29;5.20;;;2.20;;
34497;SDS011;20744;50.938;7.286;2023-07-29T08:10:57;2.88;;;1.77;;
34497;SDS011;20744;50.938;7.286;2023-07-29T08:13:24;4.50;;;2.45;;
34497;SDS011;20744;50.938;7.286;2023-07-29T08:15:52;4.45;;;1.80;;
34497;SDS011;20744;50.938;7.286;2023-07-29T08:18:21;3.70;;;1.95;;
34497;SDS011;20744;50.938;7.286;2023-07-29T08:20:51;3.20;;;1.90;;
34497;SDS011;20744;50.938;7.286;2023-07-29T08:23:19;7.53;;;1.80;;
34497;SDS011;20744;50.938;7.286;2023-07-29T08:25:50;3.03;;;1.80;;
34497;SDS011;20744;50.938;7.286;2023-07-29T08:28:18;7.60;;;2.17;;
34497;SDS011;20744;50.938;7.286;2023-07-29T08:30:46;3.80;;;1.88;;
34497;SDS011;20744;50.938;7.286;2023-07-29T08:33:13;7.00;;;2.10;;
34497;SDS011;20744;50.938;7.286;2023-07-29T08:35:42;4.15;;;1.80;;
34497;SDS011;20744;50.938;7.286;2023-07-29T08:38:09;5.53;;;2.08;;
34497;SDS011;20744;50.938;7.286;2023-07-29T08:40:37;6.05;;;2.17;;
34497;SDS011;20744;50.938;7.286;2023-07-29T08:43:04;5.10;;;1.70;;
34497;SDS011;20744;50.938;7.286;2023-07-29T08:45:32;4.90;;;1.50;;
34497;SDS011;20744;50.938;7.286;2023-07-29T08:48:02;6.40;;;1.50;;
34497;SDS011;20744;50.938;7.286;2023-07-29T08:50:29;3.65;;;1.60;;
34497;SDS011;20744;50.938;7.286;2023-07-29T08:53:00;4.18;;;1.48;;
34497;SDS011;20744;50.938;7.286;2023-07-29T08:55:28;3.85;;;1.25;;
34497;SDS011;20744;50.938;7.286;2023-07-29T08:57:56;5.30;;;1.25;;
34497;SDS011;20744;50.938;7.286;2023-07-29T09:00:24;3.95;;;1.40;;
34497;SDS011;20744;50.938;7.286;2023-07-29T09:02:52;5.15;;;1.30;;
34497;SDS011;20744;50.938;7.286;2023-07-29T09:05:20;7.15;;;1.30;;
34497;SDS011;20744;50.938;7.286;2023-07-29T09:07:47;5.47;;;1.20;;
34497;SDS011;20744;50.938;7.286;2023-07-29T09:10:16;3.55;;;1.15;;
34497;SDS011;20744;50.938;7.286;2023-07-29T09:12:43;2.83;;;1.23;;
34497;SDS011;20744;50.938;7.286;2023-07-29T09:15:11;2.20;;;1.30;;
34497;SDS011;20744;50.938;7.286;2023-07-29T09:17:38;3.47;;;1.60;;
34497;SDS011;20744;50.938;7.286;2023-07-29T09:20:08;2.65;;;1.40;;
34497;SDS011;20744;50.938;7.286;2023-07-29T09:22:36;5.38;;;1.90;;
34497;SDS011;20744;50.938;7.286;2023-07-29T09:25:04;2.50;;;1.60;;
34497;SDS011;20744;50.938;7.286;2023-07-29T09:27:32;8.00;;;1.65;;
34497;SDS011;20744;50.938;7.286;2023-07-29T09:30:05;5.22;;;1.55;;
34497;SDS011;20744;50.938;7.286;2023-07-29T09:32:32;7.68;;;1.90;;
34497;SDS011;20744;50.938;7.286;2023-07-29T09:34:59;3.92;;;1.38;;
34497;SDS011;20744;50.938;7.286;2023-07-29T09:37:27;2.25;;;1.38;;
34497;SDS011;20744;50.938;7.286;2023-07-29T09:39:55;2.92;;;1.40;;
34497;SDS011;20744;50.938;7.286;2023-07-29T09:42:23;3.83;;;1.50;;
34497;SDS011;20744;50.938;7.286;2023-07-29T09:44:52;2.22;;;1.10;;
34497;SDS011;20744;50.938;7.286;2023-07-29T09:47:20;4.10;;;1.40;;
34497;SDS011;20744;50.938;7.286;2023-07-29T09:49:47;4.88;;;1.27;;
34497;SDS011;20744;50.938;7.286;2023-07-29T09:52:15;4.13;;;1.20;;
34497;SDS011;20744;50.938;7.286;2023-07-29T09:54:43;2.85;;;1.10;;
34497;SDS011;20744;50.938;7.286;2023-07-29T09:57:10;3.88;;;1.30;;
34497;SDS011;20744;50.938;7.286;2023-07-29T09:59:38;7.60;;;1.30;;
34497;SDS011;20744;50.938;7.286;2023-07-29T10:02:06;2.90;;;1.40;;
34497;SDS011;20744;50.938;7.286;2023-07-29T10:04:36;4.43;;;1.60;;
34497;SDS011;20744;50.938;7.286;2023-07-29T10:07:03;6.47;;;1.80;;
34497;SDS011;20744;50.938;7.286;2023-07-29T10:09:31;3.50;;;1.77;;
34497;SDS011;20744;50.938;7.286;2023-07-29T10:11:59;3.42;;;1.88;;
34497;SDS011;20744;50.938;7.286;2023-07-29T10:14:26;2.90;;;1.60;;
34497;SDS011;20744;50.938;7.286;2023-07-29T10:16:55;4.13;;;1.75;;
34497;SDS011;20744;50.938;7.286;2023-07-29T10:19:26;4.35;;;1.83;;
34497;SDS011;20744;50.938;7.286;2023-07-29T10:21:53;3.92;;;1.40;;
34497;SDS011;20744;50.938;7.286;2023-07-29T10:24:22;3.83;;;1.70;;
34497;SDS011;20744;50.938;7.286;2023-07-29T10:26:53;4.35;;;1.52;;
34497;SDS011;20744;50.938;7.286;2023-07-29T10:29:23;3.25;;;1.50;;
34497;SDS011;20744;50.938;7.286;2023-07-29T10:31:51;4.30;;;1.77;;
34497;SDS011;20744;50.938;7.286;2023-07-29T10:34:19;4.18;;;1.58;;
34497;SDS011;20744;50.938;7.286;2023-07-29T10:36:49;4.63;;;1.30;;
34497;SDS011;20744;50.938;7.286;2023-07-29T10:39:17;3.38;;;1.40;;
34497;SDS011;20744;50.938;7.286;2023-07-29T10:41:54;4.18;;;1.40;;
34497;SDS011;20744;50.938;7.286;2023-07-29T10:47:10;4.43;;;0.98;;
34497;SDS011;20744;50.938;7.286;2023-07-29T10:49:39;2.50;;;1.10;;
34497;SDS011;20744;50.938;7.286;2023-07-29T10:52:08;2.35;;;0.82;;
34497;SDS011;20744;50.938;7.286;2023-07-29T10:54:41;5.28;;;1.10;;
34497;SDS011;20744;50.938;7.286;2023-07-29T10:57:12;1.90;;;0.85;;
34497;SDS011;20744;50.938;7.286;2023-07-29T10:59:40;4.55;;;1.10;;
34497;SDS011;20744;50.938;7.286;2023-07-29T11:02:15;2.83;;;1.35;;
34497;SDS011;20744;50.938;7.286;2023-07-29T11:04:47;3.65;;;1.23;;
34497;SDS011;20744;50.938;7.286;2023-07-29T11:07:20;4.13;;;1.27;;
34497;SDS011;20744;50.938;7.286;2023-07-29T11:09:52;3.30;;;1.25;;
34497;SDS011;20744;50.938;7.286;2023-07-29T11:12:33;2.38;;;1.30;;
34497;SDS011;20744;50.938;7.286;2023-07-29T11:15:02;2.30;;;1.40;;
34497;SDS011;20744;50.938;7.286;2023-07-29T11:17:30;4.15;;;1.48;;
34497;SDS011;20744;50.938;7.286;2023-07-29T11:19:59;2.53;;;1.60;;
34497;SDS011;20744;50.938;7.286;2023-07-29T11:22:29;3.95;;;1.30;;
34497;SDS011;20744;50.938;7.286;2023-07-29T11:24:56;7.95;;;1.52;;
34497;SDS011;20744;50.938;7.286;2023-07-29T11:27:24;3.17;;;1.58;;
34497;SDS011;20744;50.938;7.286;2023-07-29T11:29:56;1.90;;;1.45;;
34497;SDS011;20744;50.938;7.286;2023-07-29T11:32:23;4.35;;;1.58;;
34497;SDS011;20744;50.938;7.286;2023-07-29T11:34:51;2.83;;;1.55;;
34497;SDS011;20744;50.938;7.286;2023-07-29T11:37:18;2.45;;;1.63;;
34497;SDS011;20744;50.938;7.286;2023-07-29T11:39:48;6.05;;;1.73;;
34497;SDS011;20744;50.938;7.286;2023-07-29T11:42:16;3.90;;;1.55;;
34497;SDS011;20744;50.938;7.286;2023-07-29T11:44:43;2.28;;;1.60;;
34497;SDS011;20744;50.938;7.286;2023-07-29T11:47:11;3.25;;;1.92;;
34497;SDS011;20744;50.938;7.286;2023-07-29T11:49:39;9.68;;;1.70;;
34497;SDS011;20744;50.938;7.286;2023-07-29T11:52:07;3.40;;;1.73;;
34497;SDS011;20744;50.938;7.286;2023-07-29T11:54:34;4.75;;;1.73;;
34497;SDS011;20744;50.938;7.286;2023-07-29T11:57:03;9.50;;;2.67;;
34497;SDS011;20744;50.938;7.286;2023-07-29T11:59:31;2.80;;;1.77;;
34497;SDS011;20744;50.938;7.286;2023-07-29T12:02:00;3.85;;;1.60;;
34497;SDS011;20744;50.938;7.286;2023-07-29T12:04:28;1.85;;;1.50;;
34497;SDS011;20744;50.938;7.286;2023-07-29T12:06:55;2.22;;;1.42;;
34497;SDS011;20744;50.938;7.286;2023-07-29T12:09:23;2.15;;;1.75;;
34497;SDS011;20744;50.938;7.286;2023-07-29T12:11:52;2.78;;;1.52;;
34497;SDS011;20744;50.938;7.286;2023-07-29T12:14:21;2.53;;;1.50;;
34497;SDS011;20744;50.938;7.286;2023-07-29T12:16:48;2.90;;;1.55;;
34497;SDS011;20744;50.938;7.286;2023-07-29T12:19:17;2.13;;;1.30;;
34497;SDS011;20744;50.938;7.286;2023-07-29T12:21:44;2.42;;;1.67;;
34497;SDS011;20744;50.938;7.286;2023-07-29T12:24:12;2.33;;;1.40;;
34497;SDS011;20744;50.938;7.286;2023-07-29T12:26:40;3.25;;;1.50;;
34497;SDS011;20744;50.938;7.286;2023-07-29T12:29:13;3.58;;;1.35;;
34497;SDS011;20744;50.938;7.286;2023-07-29T12:31:43;3.10;;;1.63;;
34497;SDS011;20744;50.938;7.286;2023-07-29T12:34:16;3.75;;;1.20;;
34497;SDS011;20744;50.938;7.286;2023-07-29T12:36:44;2.17;;;1.33;;
34497;SDS011;20744;50.938;7.286;2023-07-29T12:39:18;2.00;;;1.30;;
34497;SDS011;20744;50.938;7.286;2023-07-29T12:41:46;2.03;;;1.33;;
34497;SDS011;20744;50.938;7.286;2023-07-29T12:44:13;3.00;;;1.30;;
34497;SDS011;20744;50.938;7.286;2023-07-29T12:46:40;1.73;;;1.20;;
34497;SDS011;20744;50.938;7.286;2023-07-29T12:49:09;6.35;;;1.45;;
34497;SDS011;20744;50.938;7.286;2023-07-29T12:51:37;1.55;;;1.40;;
34497;SDS011;20744;50.938;7.286;2023-07-29T12:54:04;3.17;;;1.30;;
34497;SDS011;20744;50.938;7.286;2023-07-29T12:56:32;2.80;;;1.50;;
34497;SDS011;20744;50.938;7.286;2023-07-29T12:58:59;2.45;;;1.25;;
34497;SDS011;20744;50.938;7.286;2023-07-29T13:01:27;2.95;;;1.30;;
34497;SDS011;20744;50.938;7.286;2023-07-29T13:03:54;2.75;;;1.20;;
34497;SDS011;20744;50.938;7.286;2023-07-29T13:06:23;2.88;;;1.30;;
34497;SDS011;20744;50.938;7.286;2023-07-29T13:08:50;2.13;;;1.08;;
34497;SDS011;20744;50.938;7.286;2023-07-29T13:11:18;3.63;;;1.30;;
34497;SDS011;20744;50.938;7.286;2023-07-29T13:13:45;3.60;;;1.30;;
34497;SDS011;20744;50.938;7.286;2023-07-29T13:16:12;2.00;;;1.20;;
34497;SDS011;20744;50.938;7.286;2023-07-29T13:18:40;1.42;;;1.10;;
34497;SDS011;20744;50.938;7.286;2023-07-29T13:21:07;2.17;;;1.25;;
34497;SDS011;20744;50.938;7.286;2023-07-29T13:23:36;3.28;;;1.40;;
34497;SDS011;20744;50.938;7.286;2023-07-29T13:26:03;1.40;;;1.20;;
34497;SDS011;20744;50.938;7.286;2023-07-29T13:28:30;3.08;;;1.30;;
34497;SDS011;20744;50.938;7.286;2023-07-29T13:30:58;2.63;;;1.20;;
34497;SDS011;20744;50.938;7.286;2023-07-29T13:33:25;3.35;;;1.30;;
34497;SDS011;20744;50.938;7.286;2023-07-29T13:35:52;4.10;;;1.15;;
34497;SDS011;20744;50.938;7.286;2023-07-29T13:38:20;1.67;;;1.20;;
34497;SDS011;20744;50.938;7.286;2023-07-29T13:40:48;4.82;;;1.20;;
34497;SDS011;20744;50.938;7.286;2023-07-29T13:43:16;1.85;;;1.10;;
34497;SDS011;20744;50.938;7.286;2023-07-29T13:45:44;1.30;;;0.90;;
34497;SDS011;20744;50.938;7.286;2023-07-29T13:48:13;1.17;;;0.93;;
34497;SDS011;20744;50.938;7.286;2023-07-29T13:50:41;1.75;;;1.27;;
34497;SDS011;20744;50.938;7.286;2023-07-29T13:53:09;1.30;;;1.15;;
34497;SDS011;20744;50.938;7.286;2023-07-29T13:55:36;4.07;;;1.23;;
34497;SDS011;20744;50.938;7.286;2023-07-29T13:58:05;2.72;;;1.30;;
34497;SDS011;20744;50.938;7.286;2023-07-29T14:00:32;2.92;;;1.25;;
34497;SDS011;20744;50.938;7.286;2023-07-29T14:03:00;1.90;;;1.30;;
34497;SDS011;20744;50.938;7.286;2023-07-29T14:05:27;4.30;;;1.42;;
34497;SDS011;20744;50.938;7.286;2023-07-29T14:07:54;3.15;;;1.48;;
34497;SDS011;20744;50.938;7.286;2023-07-29T14:10:22;2.95;;;1.50;;
34497;SDS011;20744;50.938;7.286;2023-07-29T14:12:49;3.25;;;1.48;;
34497;SDS011;20744;50.938;7.286;2023-07-29T14:15:18;4.88;;;2.00;;
34497;SDS011;20744;50.938;7.286;2023-07-29T14:17:45;4.28;;;1.83;;
34497;SDS011;20744;50.938;7.286;2023-07-29T14:20:13;4.20;;;1.45;;
34497;SDS011;20744;50.938;7.286;2023-07-29T14:22:40;4.07;;;2.05;;
34497;SDS011;20744;50.938;7.286;2023-07-29T14:25:07;3.00;;;2.33;;
34497;SDS011;20744;50.938;7.286;2023-07-29T14:27:35;4.90;;;1.85;;
34497;SDS011;20744;50.938;7.286;2023-07-29T14:30:02;2.50;;;1.75;;
34497;SDS011;20744;50.938;7.286;2023-07-29T14:32:31;2.45;;;1.80;;
34497;SDS011;20744;50.938;7.286;2023-07-29T14:34:58;2.85;;;1.77;;
34497;SDS011;20744;50.938;7.286;2023-07-29T14:37:28;1.95;;;1.60;;
34497;SDS011;20744;50.938;7.286;2023-07-29T14:39:55;2.38;;;1.77;;
34497;SDS011;20744;50.938;7.286;2023-07-29T14:42:22;5.15;;;1.60;;
34497;SDS011;20744;50.938;7.286;2023-07-29T14:44:50;5.28;;;1.73;;
34497;SDS011;20744;50.938;7.286;2023-07-29T14:47:17;3.10;;;1.83;;
34497;SDS011;20744;50.938;7.286;2023-07-29T14:49:46;3.40;;;1.70;;
34497;SDS011;20744;50.938;7.286;2023-07-29T14:52:13;5.05;;;1.60;;
34497;SDS011;20744;50.938;7.286;2023-07-29T14:54:40;3.95;;;1.83;;